Southwest Oregon Regional Airport North Bend US
ICAO: KOTH
IATA: OTH
Category: Medium
Scheduled Services: Yes

Elevation: 17 ft
TransAlt. 18000 ft.

Airport Communications:
AWOS 3:135.075
SEATTLE CNTR:121.4
AIR:34.5
MC MINNVILLE RDO:122.4
UNICOM:122.7

KOTH Zoom In..

Runways:

(A) RW 04 length 5980 ft width 150 ft
ILS 108.50 / hdg 43

(B) RW 13 length 4470 ft width 150 ft
---- / hdg 132

(C) RW 22 length 5980 ft width 150 ft
---- / hdg 223

(D) RW 31 length 4470 ft width 150 ft
---- / hdg 312

Location; KOTH
Day. 23 / Time. 03.34 Zulu
* Altimeter: 30.15
* Temperature: 13° c. 55.4°f.
* Wind from: 350° Speed 09 kn.
Dewpoint: 12° c.
Visibility: 9 Statute Miles.
Clouds: Overcast 300 ft.

KOTH 230334Z 35009KT 9SM OVC003 13/12 A3015 RMK AO2


Wind From 350°
Speed 09 kn.

 
 
jpsmedia.com for Web Design worldairports.se 2018   terms of use